sensor_id;sensor_type;location;lat;lon;timestamp;P1;durP1;ratioP1;P2;durP2;ratioP2
33268;SDS011;19640;50.944;5.260;2023-08-06T00:00:16;3.40;;;1.08;;
33268;SDS011;19640;50.944;5.260;2023-08-06T00:02:41;2.47;;;1.02;;
33268;SDS011;19640;50.944;5.260;2023-08-06T00:05:07;1.92;;;0.90;;
33268;SDS011;19640;50.944;5.260;2023-08-06T00:07:33;3.25;;;0.98;;
33268;SDS011;19640;50.944;5.260;2023-08-06T00:09:58;1.25;;;0.90;;
33268;SDS011;19640;50.944;5.260;2023-08-06T00:12:24;1.90;;;1.00;;
33268;SDS011;19640;50.944;5.260;2023-08-06T00:14:50;3.72;;;1.10;;
33268;SDS011;19640;50.944;5.260;2023-08-06T00:17:17;2.75;;;1.00;;
33268;SDS011;19640;50.944;5.260;2023-08-06T00:19:43;2.10;;;1.30;;
33268;SDS011;19640;50.944;5.260;2023-08-06T00:22:09;2.28;;;0.95;;
33268;SDS011;19640;50.944;5.260;2023-08-06T00:24:34;2.08;;;0.82;;
33268;SDS011;19640;50.944;5.260;2023-08-06T00:27:00;2.53;;;0.85;;
33268;SDS011;19640;50.944;5.260;2023-08-06T00:29:27;3.90;;;0.90;;
33268;SDS011;19640;50.944;5.260;2023-08-06T00:31:54;2.25;;;0.88;;
33268;SDS011;19640;50.944;5.260;2023-08-06T00:34:20;1.25;;;0.93;;
33268;SDS011;19640;50.944;5.260;2023-08-06T00:36:45;4.47;;;1.00;;
33268;SDS011;19640;50.944;5.260;2023-08-06T00:39:11;2.53;;;0.75;;
33268;SDS011;19640;50.944;5.260;2023-08-06T00:41:37;3.13;;;0.85;;
33268;SDS011;19640;50.944;5.260;2023-08-06T00:44:03;2.13;;;0.82;;
33268;SDS011;19640;50.944;5.260;2023-08-06T00:46:29;1.98;;;0.90;;
33268;SDS011;19640;50.944;5.260;2023-08-06T00:48:56;3.25;;;0.95;;
33268;SDS011;19640;50.944;5.260;2023-08-06T00:51:22;2.00;;;0.93;;
33268;SDS011;19640;50.944;5.260;2023-08-06T00:53:49;4.93;;;0.90;;
33268;SDS011;19640;50.944;5.260;2023-08-06T00:56:16;5.32;;;1.00;;
33268;SDS011;19640;50.944;5.260;2023-08-06T00:58:42;1.48;;;0.75;;
33268;SDS011;19640;50.944;5.260;2023-08-06T01:01:08;2.30;;;1.35;;
33268;SDS011;19640;50.944;5.260;2023-08-06T01:03:33;1.80;;;0.93;;
33268;SDS011;19640;50.944;5.260;2023-08-06T01:05:59;0.90;;;0.60;;
33268;SDS011;19640;50.944;5.260;2023-08-06T01:11:26;3.13;;;0.70;;
33268;SDS011;19640;50.944;5.260;2023-08-06T01:14:23;2.05;;;0.70;;
33268;SDS011;19640;50.944;5.260;2023-08-06T01:17:00;2.90;;;0.52;;
33268;SDS011;19640;50.944;5.260;2023-08-06T01:19:27;2.67;;;0.50;;
33268;SDS011;19640;50.944;5.260;2023-08-06T01:21:54;5.00;;;0.60;;
33268;SDS011;19640;50.944;5.260;2023-08-06T01:24:19;2.67;;;0.93;;
33268;SDS011;19640;50.944;5.260;2023-08-06T01:26:47;5.30;;;0.85;;
33268;SDS011;19640;50.944;5.260;2023-08-06T01:34:21;0.93;;;0.47;;
33268;SDS011;19640;50.944;5.260;2023-08-06T01:36:49;4.78;;;0.57;;
33268;SDS011;19640;50.944;5.260;2023-08-06T01:39:15;6.55;;;0.90;;
33268;SDS011;19640;50.944;5.260;2023-08-06T01:41:41;2.83;;;0.60;;
33268;SDS011;19640;50.944;5.260;2023-08-06T01:44:07;3.00;;;0.77;;
33268;SDS011;19640;50.944;5.260;2023-08-06T01:46:32;1.45;;;0.70;;
33268;SDS011;19640;50.944;5.260;2023-08-06T01:48:58;1.55;;;0.90;;
33268;SDS011;19640;50.944;5.260;2023-08-06T01:51:24;2.38;;;0.77;;
33268;SDS011;19640;50.944;5.260;2023-08-06T01:53:50;1.27;;;0.55;;
33268;SDS011;19640;50.944;5.260;2023-08-06T01:56:15;3.45;;;0.70;;
33268;SDS011;19640;50.944;5.260;2023-08-06T01:58:41;2.60;;;0.70;;
33268;SDS011;19640;50.944;5.260;2023-08-06T02:01:06;1.40;;;0.60;;
33268;SDS011;19640;50.944;5.260;2023-08-06T02:03:32;1.48;;;0.70;;
33268;SDS011;19640;50.944;5.260;2023-08-06T02:05:58;1.90;;;0.50;;
33268;SDS011;19640;50.944;5.260;2023-08-06T02:08:23;1.77;;;0.60;;
33268;SDS011;19640;50.944;5.260;2023-08-06T02:10:49;2.15;;;0.80;;
33268;SDS011;19640;50.944;5.260;2023-08-06T02:13:16;2.08;;;0.80;;
33268;SDS011;19640;50.944;5.260;2023-08-06T02:15:42;1.08;;;0.55;;
33268;SDS011;19640;50.944;5.260;2023-08-06T02:18:13;2.30;;;0.60;;
33268;SDS011;19640;50.944;5.260;2023-08-06T02:20:40;1.52;;;0.60;;
33268;SDS011;19640;50.944;5.260;2023-08-06T02:23:05;5.68;;;0.70;;
33268;SDS011;19640;50.944;5.260;2023-08-06T02:25:31;1.10;;;0.60;;
33268;SDS011;19640;50.944;5.260;2023-08-06T02:27:57;1.02;;;0.50;;
33268;SDS011;19640;50.944;5.260;2023-08-06T02:30:23;1.55;;;0.70;;
33268;SDS011;19640;50.944;5.260;2023-08-06T02:32:48;2.22;;;0.70;;
33268;SDS011;19640;50.944;5.260;2023-08-06T02:35:14;1.77;;;0.60;;
33268;SDS011;19640;50.944;5.260;2023-08-06T02:37:40;3.17;;;0.52;;
33268;SDS011;19640;50.944;5.260;2023-08-06T02:40:08;2.08;;;0.70;;
33268;SDS011;19640;50.944;5.260;2023-08-06T02:42:33;1.65;;;0.60;;
33268;SDS011;19640;50.944;5.260;2023-08-06T02:44:59;3.35;;;0.57;;
33268;SDS011;19640;50.944;5.260;2023-08-06T02:47:26;4.20;;;0.77;;
33268;SDS011;19640;50.944;5.260;2023-08-06T02:49:51;2.38;;;0.52;;
33268;SDS011;19640;50.944;5.260;2023-08-06T02:52:17;2.35;;;0.70;;
33268;SDS011;19640;50.944;5.260;2023-08-06T02:54:43;3.10;;;0.70;;
33268;SDS011;19640;50.944;5.260;2023-08-06T02:57:09;1.58;;;0.65;;
33268;SDS011;19640;50.944;5.260;2023-08-06T02:59:35;2.65;;;0.80;;
33268;SDS011;19640;50.944;5.260;2023-08-06T03:02:00;1.83;;;0.70;;
33268;SDS011;19640;50.944;5.260;2023-08-06T03:04:26;2.72;;;0.80;;
33268;SDS011;19640;50.944;5.260;2023-08-06T03:06:52;2.08;;;0.95;;
33268;SDS011;19640;50.944;5.260;2023-08-06T03:09:18;2.83;;;0.60;;
33268;SDS011;19640;50.944;5.260;2023-08-06T03:11:43;1.38;;;0.70;;
33268;SDS011;19640;50.944;5.260;2023-08-06T03:14:09;2.13;;;0.70;;
33268;SDS011;19640;50.944;5.260;2023-08-06T03:16:35;0.77;;;0.68;;
33268;SDS011;19640;50.944;5.260;2023-08-06T03:19:03;2.13;;;0.60;;
33268;SDS011;19640;50.944;5.260;2023-08-06T03:21:28;0.93;;;0.68;;
33268;SDS011;19640;50.944;5.260;2023-08-06T03:23:54;0.55;;;0.52;;
33268;SDS011;19640;50.944;5.260;2023-08-06T03:26:20;1.40;;;0.68;;
33268;SDS011;19640;50.944;5.260;2023-08-06T03:28:45;4.97;;;0.88;;
33268;SDS011;19640;50.944;5.260;2023-08-06T03:31:11;1.20;;;0.75;;
33268;SDS011;19640;50.944;5.260;2023-08-06T03:33:37;4.38;;;1.17;;
33268;SDS011;19640;50.944;5.260;2023-08-06T03:36:03;3.58;;;1.10;;
33268;SDS011;19640;50.944;5.260;2023-08-06T03:38:29;1.65;;;1.33;;
33268;SDS011;19640;50.944;5.260;2023-08-06T03:40:56;3.22;;;1.77;;
33268;SDS011;19640;50.944;5.260;2023-08-06T03:43:21;2.97;;;1.73;;
33268;SDS011;19640;50.944;5.260;2023-08-06T03:45:47;4.32;;;2.10;;
33268;SDS011;19640;50.944;5.260;2023-08-06T03:48:13;7.38;;;2.00;;
33268;SDS011;19640;50.944;5.260;2023-08-06T03:50:38;7.05;;;2.28;;
33268;SDS011;19640;50.944;5.260;2023-08-06T03:53:04;7.30;;;2.55;;
33268;SDS011;19640;50.944;5.260;2023-08-06T03:55:29;3.03;;;2.35;;
33268;SDS011;19640;50.944;5.260;2023-08-06T03:57:56;5.68;;;2.30;;
33268;SDS011;19640;50.944;5.260;2023-08-06T04:00:22;3.92;;;2.65;;
33268;SDS011;19640;50.944;5.260;2023-08-06T04:02:47;5.85;;;2.50;;
33268;SDS011;19640;50.944;5.260;2023-08-06T04:05:14;6.93;;;2.78;;
33268;SDS011;19640;50.944;5.260;2023-08-06T04:07:42;6.85;;;2.80;;
33268;SDS011;19640;50.944;5.260;2023-08-06T04:10:07;4.10;;;2.92;;
33268;SDS011;19640;50.944;5.260;2023-08-06T04:12:33;4.75;;;3.03;;
33268;SDS011;19640;50.944;5.260;2023-08-06T04:15:01;5.85;;;2.97;;
33268;SDS011;19640;50.944;5.260;2023-08-06T04:17:28;5.68;;;3.13;;
33268;SDS011;19640;50.944;5.260;2023-08-06T04:19:54;8.15;;;3.03;;
33268;SDS011;19640;50.944;5.260;2023-08-06T04:22:23;8.25;;;3.58;;
33268;SDS011;19640;50.944;5.260;2023-08-06T04:24:49;6.88;;;3.58;;
33268;SDS011;19640;50.944;5.260;2023-08-06T04:27:15;6.45;;;3.47;;
33268;SDS011;19640;50.944;5.260;2023-08-06T04:29:41;5.22;;;3.80;;
33268;SDS011;19640;50.944;5.260;2023-08-06T04:32:08;4.22;;;3.90;;
33268;SDS011;19640;50.944;5.260;2023-08-06T04:34:35;9.65;;;4.95;;
33268;SDS011;19640;50.944;5.260;2023-08-06T04:37:01;7.57;;;4.47;;
33268;SDS011;19640;50.944;5.260;2023-08-06T04:39:28;10.63;;;4.07;;
33268;SDS011;19640;50.944;5.260;2023-08-06T04:41:54;9.70;;;4.15;;
33268;SDS011;19640;50.944;5.260;2023-08-06T04:44:20;6.32;;;3.88;;
33268;SDS011;19640;50.944;5.260;2023-08-06T04:46:46;6.72;;;6.00;;
33268;SDS011;19640;50.944;5.260;2023-08-06T04:49:12;6.50;;;4.78;;
33268;SDS011;19640;50.944;5.260;2023-08-06T04:51:37;11.65;;;4.97;;
33268;SDS011;19640;50.944;5.260;2023-08-06T04:54:03;6.63;;;4.55;;
33268;SDS011;19640;50.944;5.260;2023-08-06T04:56:30;6.35;;;4.70;;
33268;SDS011;19640;50.944;5.260;2023-08-06T04:58:57;9.80;;;4.90;;
33268;SDS011;19640;50.944;5.260;2023-08-06T05:01:23;7.03;;;4.03;;
33268;SDS011;19640;50.944;5.260;2023-08-06T05:03:50;5.40;;;3.53;;
33268;SDS011;19640;50.944;5.260;2023-08-06T05:06:16;5.93;;;3.60;;
33268;SDS011;19640;50.944;5.260;2023-08-06T05:08:41;4.13;;;2.83;;
33268;SDS011;19640;50.944;5.260;2023-08-06T05:11:07;3.70;;;3.10;;
33268;SDS011;19640;50.944;5.260;2023-08-06T05:13:34;3.53;;;2.67;;
33268;SDS011;19640;50.944;5.260;2023-08-06T05:16:00;6.22;;;2.70;;
33268;SDS011;19640;50.944;5.260;2023-08-06T05:18:25;4.43;;;2.90;;
33268;SDS011;19640;50.944;5.260;2023-08-06T05:20:51;3.45;;;2.58;;
33268;SDS011;19640;50.944;5.260;2023-08-06T05:23:17;3.50;;;2.80;;
33268;SDS011;19640;50.944;5.260;2023-08-06T05:25:42;3.50;;;3.15;;
33268;SDS011;19640;50.944;5.260;2023-08-06T05:28:08;3.13;;;2.80;;
33268;SDS011;19640;50.944;5.260;2023-08-06T05:30:34;3.85;;;3.08;;
33268;SDS011;19640;50.944;5.260;2023-08-06T05:33:03;10.80;;;3.45;;
33268;SDS011;19640;50.944;5.260;2023-08-06T05:35:29;4.13;;;3.33;;
33268;SDS011;19640;50.944;5.260;2023-08-06T05:37:54;4.80;;;3.72;;
33268;SDS011;19640;50.944;5.260;2023-08-06T05:40:21;4.10;;;3.58;;
33268;SDS011;19640;50.944;5.260;2023-08-06T05:42:47;4.72;;;3.10;;
33268;SDS011;19640;50.944;5.260;2023-08-06T05:45:12;3.40;;;2.90;;
33268;SDS011;19640;50.944;5.260;2023-08-06T05:47:38;6.35;;;4.13;;
33268;SDS011;19640;50.944;5.260;2023-08-06T05:50:04;5.97;;;4.30;;
33268;SDS011;19640;50.944;5.260;2023-08-06T05:52:31;5.93;;;4.22;;
33268;SDS011;19640;50.944;5.260;2023-08-06T05:54:57;7.53;;;4.57;;
33268;SDS011;19640;50.944;5.260;2023-08-06T05:57:24;6.03;;;4.80;;
33268;SDS011;19640;50.944;5.260;2023-08-06T05:59:49;6.57;;;5.40;;
33268;SDS011;19640;50.944;5.260;2023-08-06T06:02:15;5.93;;;5.03;;
33268;SDS011;19640;50.944;5.260;2023-08-06T06:04:41;7.60;;;5.68;;
33268;SDS011;19640;50.944;5.260;2023-08-06T06:07:07;8.38;;;5.28;;
33268;SDS011;19640;50.944;5.260;2023-08-06T06:09:32;7.60;;;5.40;;
33268;SDS011;19640;50.944;5.260;2023-08-06T06:11:58;3.70;;;2.88;;
33268;SDS011;19640;50.944;5.260;2023-08-06T06:14:25;2.85;;;2.00;;
33268;SDS011;19640;50.944;5.260;2023-08-06T06:16:50;2.33;;;1.60;;
33268;SDS011;19640;50.944;5.260;2023-08-06T06:19:20;2.45;;;1.65;;
33268;SDS011;19640;50.944;5.260;2023-08-06T06:21:45;3.47;;;1.65;;
33268;SDS011;19640;50.944;5.260;2023-08-06T06:24:11;2.22;;;1.70;;
33268;SDS011;19640;50.944;5.260;2023-08-06T06:26:37;2.55;;;2.35;;
33268;SDS011;19640;50.944;5.260;2023-08-06T06:29:03;5.80;;;2.45;;
33268;SDS011;19640;50.944;5.260;2023-08-06T06:31:29;4.50;;;3.47;;
33268;SDS011;19640;50.944;5.260;2023-08-06T06:33:54;6.82;;;4.20;;
33268;SDS011;19640;50.944;5.260;2023-08-06T06:36:20;5.47;;;4.00;;
33268;SDS011;19640;50.944;5.260;2023-08-06T06:38:46;7.15;;;4.88;;
33268;SDS011;19640;50.944;5.260;2023-08-06T06:41:13;5.88;;;4.88;;
33268;SDS011;19640;50.944;5.260;2023-08-06T06:43:38;6.00;;;4.93;;
33268;SDS011;19640;50.944;5.260;2023-08-06T06:46:05;6.40;;;5.43;;
33268;SDS011;19640;50.944;5.260;2023-08-06T06:48:31;8.13;;;5.80;;
33268;SDS011;19640;50.944;5.260;2023-08-06T06:50:58;6.88;;;6.18;;
33268;SDS011;19640;50.944;5.260;2023-08-06T06:53:24;7.93;;;6.60;;
33268;SDS011;19640;50.944;5.260;2023-08-06T06:55:53;6.65;;;6.03;;
33268;SDS011;19640;50.944;5.260;2023-08-06T06:58:29;8.57;;;6.47;;
33268;SDS011;19640;50.944;5.260;2023-08-06T07:00:56;6.03;;;5.10;;
33268;SDS011;19640;50.944;5.260;2023-08-06T07:03:21;7.90;;;5.50;;
33268;SDS011;19640;50.944;5.260;2023-08-06T07:05:47;6.82;;;4.90;;
33268;SDS011;19640;50.944;5.260;2023-08-06T07:08:13;5.88;;;5.28;;
33268;SDS011;19640;50.944;5.260;2023-08-06T07:10:40;7.05;;;5.15;;
33268;SDS011;19640;50.944;5.260;2023-08-06T07:13:06;7.03;;;4.40;;
33268;SDS011;19640;50.944;5.260;2023-08-06T07:15:32;8.30;;;4.15;;
33268;SDS011;19640;50.944;5.260;2023-08-06T07:17:58;4.95;;;2.75;;
33268;SDS011;19640;50.944;5.260;2023-08-06T07:20:25;3.17;;;2.22;;
33268;SDS011;19640;50.944;5.260;2023-08-06T07:22:50;5.05;;;2.38;;
33268;SDS011;19640;50.944;5.260;2023-08-06T07:25:16;5.45;;;2.05;;
33268;SDS011;19640;50.944;5.260;2023-08-06T07:27:42;6.07;;;2.42;;
33268;SDS011;19640;50.944;5.260;2023-08-06T07:30:08;4.45;;;2.05;;
33268;SDS011;19640;50.944;5.260;2023-08-06T07:32:34;5.60;;;1.70;;
33268;SDS011;19640;50.944;5.260;2023-08-06T07:35:00;4.28;;;1.83;;
33268;SDS011;19640;50.944;5.260;2023-08-06T07:37:27;9.00;;;2.60;;
33268;SDS011;19640;50.944;5.260;2023-08-06T07:39:56;3.83;;;1.80;;
33268;SDS011;19640;50.944;5.260;2023-08-06T07:42:22;3.65;;;1.85;;
33268;SDS011;19640;50.944;5.260;2023-08-06T07:44:54;5.10;;;2.15;;
33268;SDS011;19640;50.944;5.260;2023-08-06T07:47:21;5.25;;;1.95;;
33268;SDS011;19640;50.944;5.260;2023-08-06T07:49:47;7.82;;;2.17;;
33268;SDS011;19640;50.944;5.260;2023-08-06T07:52:13;5.22;;;2.53;;
33268;SDS011;19640;50.944;5.260;2023-08-06T07:54:39;4.57;;;2.35;;
33268;SDS011;19640;50.944;5.260;2023-08-06T07:57:05;3.17;;;2.17;;
33268;SDS011;19640;50.944;5.260;2023-08-06T07:59:31;6.80;;;2.40;;
33268;SDS011;19640;50.944;5.260;2023-08-06T08:01:57;10.50;;;2.50;;
33268;SDS011;19640;50.944;5.260;2023-08-06T08:04:23;5.53;;;2.13;;
33268;SDS011;19640;50.944;5.260;2023-08-06T08:06:49;8.38;;;3.42;;
33268;SDS011;19640;50.944;5.260;2023-08-06T08:09:15;6.55;;;2.28;;
33268;SDS011;19640;50.944;5.260;2023-08-06T08:11:41;6.60;;;2.30;;
33268;SDS011;19640;50.944;5.260;2023-08-06T08:14:07;6.55;;;2.38;;
33268;SDS011;19640;50.944;5.260;2023-08-06T08:16:35;4.78;;;2.05;;
33268;SDS011;19640;50.944;5.260;2023-08-06T08:19:00;5.57;;;2.30;;
33268;SDS011;19640;50.944;5.260;2023-08-06T08:21:29;4.13;;;2.08;;
33268;SDS011;19640;50.944;5.260;2023-08-06T08:24:01;4.68;;;1.95;;
33268;SDS011;19640;50.944;5.260;2023-08-06T08:26:29;7.00;;;2.42;;
33268;SDS011;19640;50.944;5.260;2023-08-06T08:28:54;5.13;;;2.45;;
33268;SDS011;19640;50.944;5.260;2023-08-06T08:31:21;13.85;;;2.47;;
33268;SDS011;19640;50.944;5.260;2023-08-06T08:33:47;7.38;;;2.70;;
33268;SDS011;19640;50.944;5.260;2023-08-06T08:36:12;4.07;;;2.58;;
33268;SDS011;19640;50.944;5.260;2023-08-06T08:38:38;7.93;;;2.03;;
33268;SDS011;19640;50.944;5.260;2023-08-06T08:41:04;3.28;;;2.15;;
33268;SDS011;19640;50.944;5.260;2023-08-06T08:43:30;5.38;;;2.33;;
33268;SDS011;19640;50.944;5.260;2023-08-06T08:45:57;5.10;;;2.00;;
33268;SDS011;19640;50.944;5.260;2023-08-06T08:48:25;7.90;;;1.90;;
33268;SDS011;19640;50.944;5.260;2023-08-06T08:50:52;7.28;;;1.90;;
33268;SDS011;19640;50.944;5.260;2023-08-06T08:53:18;5.55;;;1.60;;
33268;SDS011;19640;50.944;5.260;2023-08-06T08:55:49;9.18;;;1.30;;
33268;SDS011;19640;50.944;5.260;2023-08-06T08:58:15;4.88;;;1.48;;
33268;SDS011;19640;50.944;5.260;2023-08-06T09:00:45;6.22;;;1.50;;
33268;SDS011;19640;50.944;5.260;2023-08-06T09:03:18;8.90;;;1.40;;
33268;SDS011;19640;50.944;5.260;2023-08-06T09:05:44;12.70;;;1.50;;
33268;SDS011;19640;50.944;5.260;2023-08-06T09:08:11;7.07;;;1.13;;
33268;SDS011;19640;50.944;5.260;2023-08-06T09:10:41;7.85;;;1.33;;
33268;SDS011;19640;50.944;5.260;2023-08-06T09:13:08;6.05;;;1.00;;
33268;SDS011;19640;50.944;5.260;2023-08-06T09:15:34;5.75;;;1.30;;
33268;SDS011;19640;50.944;5.260;2023-08-06T09:18:00;6.22;;;1.50;;
33268;SDS011;19640;50.944;5.260;2023-08-06T09:20:33;10.52;;;1.35;;
33268;SDS011;19640;50.944;5.260;2023-08-06T09:23:06;8.57;;;1.30;;
33268;SDS011;19640;50.944;5.260;2023-08-06T09:25:33;8.20;;;1.42;;
33268;SDS011;19640;50.944;5.260;2023-08-06T09:28:00;8.25;;;1.70;;
33268;SDS011;19640;50.944;5.260;2023-08-06T09:30:32;7.30;;;1.65;;
33268;SDS011;19640;50.944;5.260;2023-08-06T09:33:00;4.90;;;1.55;;
33268;SDS011;19640;50.944;5.260;2023-08-06T09:35:29;6.75;;;1.30;;
33268;SDS011;19640;50.944;5.260;2023-08-06T09:38:03;3.53;;;1.10;;
33268;SDS011;19640;50.944;5.260;2023-08-06T09:40:33;3.00;;;1.08;;
33268;SDS011;19640;50.944;5.260;2023-08-06T09:42:59;5.22;;;1.13;;
33268;SDS011;19640;50.944;5.260;2023-08-06T09:48:08;4.82;;;1.00;;
33268;SDS011;19640;50.944;5.260;2023-08-06T09:50:37;5.57;;;0.80;;
33268;SDS011;19640;50.944;5.260;2023-08-06T09:53:05;3.17;;;0.98;;
33268;SDS011;19640;50.944;5.260;2023-08-06T09:55:33;4.90;;;1.30;;
33268;SDS011;19640;50.944;5.260;2023-08-06T09:57:59;4.07;;;1.13;;
33268;SDS011;19640;50.944;5.260;2023-08-06T10:00:25;5.68;;;0.98;;
33268;SDS011;19640;50.944;5.260;2023-08-06T10:02:52;4.07;;;1.48;;
33268;SDS011;19640;50.944;5.260;2023-08-06T10:05:21;4.13;;;1.20;;
33268;SDS011;19640;50.944;5.260;2023-08-06T10:07:51;4.30;;;0.90;;
33268;SDS011;19640;50.944;5.260;2023-08-06T10:10:18;4.55;;;1.30;;
33268;SDS011;19640;50.944;5.260;2023-08-06T10:12:51;2.85;;;0.95;;
33268;SDS011;19640;50.944;5.260;2023-08-06T10:15:22;3.78;;;1.10;;
33268;SDS011;19640;50.944;5.260;2023-08-06T10:17:57;3.38;;;0.95;;
33268;SDS011;19640;50.944;5.260;2023-08-06T10:20:25;2.78;;;0.90;;
33268;SDS011;19640;50.944;5.260;2023-08-06T10:23:01;2.88;;;0.90;;
33268;SDS011;19640;50.944;5.260;2023-08-06T10:25:33;3.00;;;1.00;;
33268;SDS011;19640;50.944;5.260;2023-08-06T10:27:59;3.10;;;0.93;;
33268;SDS011;19640;50.944;5.260;2023-08-06T10:30:27;4.78;;;1.10;;
33268;SDS011;19640;50.944;5.260;2023-08-06T10:32:56;6.15;;;1.25;;
33268;SDS011;19640;50.944;5.260;2023-08-06T10:43:30;2.30;;;0.73;;
33268;SDS011;19640;50.944;5.260;2023-08-06T10:46:03;2.42;;;0.77;;
33268;SDS011;19640;50.944;5.260;2023-08-06T10:48:35;1.52;;;0.70;;
33268;SDS011;19640;50.944;5.260;2023-08-06T10:51:07;1.55;;;0.77;;
33268;SDS011;19640;50.944;5.260;2023-08-06T10:53:38;4.85;;;0.80;;
33268;SDS011;19640;50.944;5.260;2023-08-06T10:58:50;3.72;;;0.77;;
33268;SDS011;19640;50.944;5.260;2023-08-06T11:01:17;4.57;;;0.95;;
33268;SDS011;19640;50.944;5.260;2023-08-06T11:03:44;2.55;;;0.73;;
33268;SDS011;19640;50.944;5.260;2023-08-06T11:06:10;2.30;;;0.80;;
33268;SDS011;19640;50.944;5.260;2023-08-06T11:08:47;2.83;;;0.70;;
33268;SDS011;19640;50.944;5.260;2023-08-06T11:11:15;2.25;;;0.63;;
33268;SDS011;19640;50.944;5.260;2023-08-06T11:13:43;1.35;;;0.50;;
33268;SDS011;19640;50.944;5.260;2023-08-06T11:16:11;2.92;;;0.70;;
33268;SDS011;19640;50.944;5.260;2023-08-06T11:18:43;3.00;;;0.60;;
33268;SDS011;19640;50.944;5.260;2023-08-06T11:21:10;2.65;;;0.60;;
33268;SDS011;19640;50.944;5.260;2023-08-06T11:23:39;1.80;;;0.52;;
33268;SDS011;19640;50.944;5.260;2023-08-06T11:26:06;2.13;;;0.57;;
33268;SDS011;19640;50.944;5.260;2023-08-06T11:28:32;2.65;;;0.77;;
33268;SDS011;19640;50.944;5.260;2023-08-06T11:30:58;2.65;;;1.02;;
33268;SDS011;19640;50.944;5.260;2023-08-06T11:33:27;5.70;;;0.77;;
33268;SDS011;19640;50.944;5.260;2023-08-06T11:35:57;3.08;;;0.75;;
33268;SDS011;19640;50.944;5.260;2023-08-06T11:38:28;4.22;;;0.85;;
33268;SDS011;19640;50.944;5.260;2023-08-06T11:40:54;3.38;;;0.80;;
33268;SDS011;19640;50.944;5.260;2023-08-06T11:43:20;4.50;;;0.80;;
33268;SDS011;19640;50.944;5.260;2023-08-06T11:45:47;3.85;;;0.70;;
33268;SDS011;19640;50.944;5.260;2023-08-06T11:48:14;4.18;;;1.08;;
33268;SDS011;19640;50.944;5.260;2023-08-06T11:50:40;2.92;;;0.60;;
33268;SDS011;19640;50.944;5.260;2023-08-06T11:53:06;4.07;;;0.88;;
33268;SDS011;19640;50.944;5.260;2023-08-06T11:55:32;1.95;;;0.47;;
33268;SDS011;19640;50.944;5.260;2023-08-06T11:57:58;1.60;;;0.60;;
33268;SDS011;19640;50.944;5.260;2023-08-06T12:00:28;2.20;;;0.50;;
33268;SDS011;19640;50.944;5.260;2023-08-06T12:02:54;1.23;;;0.55;;
33268;SDS011;19640;50.944;5.260;2023-08-06T12:05:28;3.55;;;0.68;;
33268;SDS011;19640;50.944;5.260;2023-08-06T12:07:59;1.67;;;0.68;;
33268;SDS011;19640;50.944;5.260;2023-08-06T12:10:26;5.57;;;0.80;;
33268;SDS011;19640;50.944;5.260;2023-08-06T12:12:53;1.98;;;0.73;;
33268;SDS011;19640;50.944;5.260;2023-08-06T12:15:19;3.58;;;0.63;;
33268;SDS011;19640;50.944;5.260;2023-08-06T12:17:45;2.47;;;0.60;;
33268;SDS011;19640;50.944;5.260;2023-08-06T12:20:12;3.33;;;0.57;;
33268;SDS011;19640;50.944;5.260;2023-08-06T12:22:38;3.95;;;0.90;;
33268;SDS011;19640;50.944;5.260;2023-08-06T12:27:36;3.90;;;0.70;;
33268;SDS011;19640;50.944;5.260;2023-08-06T12:30:07;4.22;;;0.75;;
33268;SDS011;19640;50.944;5.260;2023-08-06T12:32:33;5.13;;;1.15;;
33268;SDS011;19640;50.944;5.260;2023-08-06T12:35:00;3.08;;;0.80;;
33268;SDS011;19640;50.944;5.260;2023-08-06T12:37:26;3.67;;;0.73;;
33268;SDS011;19640;50.944;5.260;2023-08-06T12:39:52;2.28;;;0.68;;
33268;SDS011;19640;50.944;5.260;2023-08-06T12:42:18;5.35;;;0.98;;
33268;SDS011;19640;50.944;5.260;2023-08-06T12:44:44;3.80;;;1.05;;
33268;SDS011;19640;50.944;5.260;2023-08-06T12:47:10;6.28;;;1.20;;
33268;SDS011;19640;50.944;5.260;2023-08-06T12:49:36;5.22;;;0.88;;
33268;SDS011;19640;50.944;5.260;2023-08-06T12:52:02;3.58;;;0.73;;
33268;SDS011;19640;50.944;5.260;2023-08-06T12:54:30;4.07;;;0.80;;
33268;SDS011;19640;50.944;5.260;2023-08-06T12:57:01;2.60;;;0.70;;
33268;SDS011;19640;50.944;5.260;2023-08-06T12:59:28;3.42;;;1.63;;
33268;SDS011;19640;50.944;5.260;2023-08-06T13:01:53;2.85;;;0.90;;
33268;SDS011;19640;50.944;5.260;2023-08-06T13:04:19;3.78;;;0.95;;
33268;SDS011;19640;50.944;5.260;2023-08-06T13:06:45;4.60;;;0.68;;
33268;SDS011;19640;50.944;5.260;2023-08-06T13:09:11;1.48;;;0.50;;
33268;SDS011;19640;50.944;5.260;2023-08-06T13:11:38;2.97;;;0.73;;
33268;SDS011;19640;50.944;5.260;2023-08-06T13:14:05;1.85;;;0.70;;
33268;SDS011;19640;50.944;5.260;2023-08-06T13:16:32;1.77;;;0.50;;
33268;SDS011;19640;50.944;5.260;2023-08-06T13:18:58;2.25;;;0.60;;
33268;SDS011;19640;50.944;5.260;2023-08-06T13:21:24;1.73;;;0.68;;
33268;SDS011;19640;50.944;5.260;2023-08-06T13:23:57;1.70;;;0.65;;
33268;SDS011;19640;50.944;5.260;2023-08-06T13:26:23;3.22;;;0.70;;
33268;SDS011;19640;50.944;5.260;2023-08-06T13:28:49;2.45;;;0.70;;
33268;SDS011;19640;50.944;5.260;2023-08-06T13:31:16;3.70;;;1.00;;
33268;SDS011;19640;50.944;5.260;2023-08-06T13:33:42;3.15;;;0.85;;
33268;SDS011;19640;50.944;5.260;2023-08-06T13:36:07;2.60;;;0.80;;
33268;SDS011;19640;50.944;5.260;2023-08-06T13:38:33;3.60;;;0.82;;
33268;SDS011;19640;50.944;5.260;2023-08-06T13:41:00;2.85;;;0.90;;
33268;SDS011;19640;50.944;5.260;2023-08-06T13:43:26;3.15;;;0.93;;
33268;SDS011;19640;50.944;5.260;2023-08-06T13:45:52;2.63;;;0.80;;
33268;SDS011;19640;50.944;5.260;2023-08-06T13:48:18;4.93;;;1.10;;
33268;SDS011;19640;50.944;5.260;2023-08-06T13:50:44;2.95;;;0.95;;
33268;SDS011;19640;50.944;5.260;2023-08-06T13:53:10;5.10;;;0.80;;
33268;SDS011;19640;50.944;5.260;2023-08-06T13:55:35;3.05;;;1.00;;
33268;SDS011;19640;50.944;5.260;2023-08-06T13:58:01;4.07;;;0.70;;
33268;SDS011;19640;50.944;5.260;2023-08-06T14:00:27;3.63;;;1.13;;
33268;SDS011;19640;50.944;5.260;2023-08-06T14:02:53;2.97;;;0.60;;
33268;SDS011;19640;50.944;5.260;2023-08-06T14:05:19;1.27;;;0.60;;
33268;SDS011;19640;50.944;5.260;2023-08-06T14:07:44;2.20;;;0.50;;
33268;SDS011;19640;50.944;5.260;2023-08-06T14:10:10;1.13;;;0.40;;
33268;SDS011;19640;50.944;5.260;2023-08-06T14:12:36;1.83;;;0.55;;
33268;SDS011;19640;50.944;5.260;2023-08-06T14:15:02;2.75;;;0.50;;
33268;SDS011;19640;50.944;5.260;2023-08-06T14:17:28;1.27;;;0.45;;
33268;SDS011;19640;50.944;5.260;2023-08-06T14:19:57;2.33;;;0.40;;
33268;SDS011;19640;50.944;5.260;2023-08-06T14:22:23;1.48;;;0.50;;
33268;SDS011;19640;50.944;5.260;2023-08-06T14:24:48;1.95;;;0.40;;
33268;SDS011;19640;50.944;5.260;2023-08-06T14:27:14;1.85;;;0.40;;
33268;SDS011;19640;50.944;5.260;2023-08-06T14:29:40;1.45;;;0.40;;
33268;SDS011;19640;50.944;5.260;2023-08-06T14:32:06;2.42;;;0.50;;
33268;SDS011;19640;50.944;5.260;2023-08-06T14:34:37;0.28;;;0.20;;
33268;SDS011;19640;50.944;5.260;2023-08-06T14:37:03;1.10;;;0.30;;
33268;SDS011;19640;50.944;5.260;2023-08-06T14:39:29;0.28;;;0.28;;
33268;SDS011;19640;50.944;5.260;2023-08-06T14:41:55;1.90;;;0.55;;
33268;SDS011;19640;50.944;5.260;2023-08-06T14:44:20;1.40;;;0.40;;
33268;SDS011;19640;50.944;5.260;2023-08-06T14:46:46;2.15;;;0.40;;
33268;SDS011;19640;50.944;5.260;2023-08-06T14:49:13;2.28;;;0.50;;
33268;SDS011;19640;50.944;5.260;2023-08-06T14:51:38;1.08;;;0.40;;
33268;SDS011;19640;50.944;5.260;2023-08-06T14:54:04;1.45;;;0.43;;
33268;SDS011;19640;50.944;5.260;2023-08-06T14:56:30;0.90;;;0.40;;
33268;SDS011;19640;50.944;5.260;2023-08-06T14:58:55;1.00;;;0.38;;
33268;SDS011;19640;50.944;5.260;2023-08-06T15:01:21;1.13;;;0.38;;
33268;SDS011;19640;50.944;5.260;2023-08-06T15:03:47;0.98;;;0.30;;
33268;SDS011;19640;50.944;5.260;2023-08-06T15:06:12;1.55;;;0.50;;
33268;SDS011;19640;50.944;5.260;2023-08-06T15:08:38;1.75;;;0.40;;